Time;durP1;ratioP1;P1;durP2;ratioP2;P2;SDS_P1;SDS_P2;PMS_P1;PMS_P2;Temp;Humidity;BMP_temperature;BMP_pressure;BME280_temperature;BME280_humidity;BME280_pressure;Samples;Min_cycle;Max_cycle;Signal;HPM_P1;HPM_P2
2023/09/18 00:00:13;;;;;;;0.90;0.40;;;;;;;-143.84;73.06;45113.81;5090079;28;20504;-61
2023/09/18 00:02:40;;;;;;;0.90;0.40;;;;;;;-143.84;72.77;45081.44;5089857;28;20432;-60
2023/09/18 00:05:08;;;;;;;0.90;0.30;;;;;;;-143.84;72.65;45119.53;5089980;28;20444;-61
2023/09/18 00:07:36;;;;;;;0.87;0.30;;;;;;;-143.84;72.39;45113.81;5090192;28;20486;-61
2023/09/18 00:10:04;;;;;;;0.90;0.40;;;;;;;-143.84;72.49;45090.97;5089591;28;20435;-61
2023/09/18 00:12:31;;;;;;;0.90;0.40;;;;;;;-143.84;72.47;45127.13;5089796;28;20444;-61
2023/09/18 00:14:58;;;;;;;0.90;0.40;;;;;;;-143.84;72.27;45106.19;5089679;28;20517;-61
2023/09/18 00:17:25;;;;;;;0.90;0.40;;;;;;;-143.84;72.07;45087.16;5089313;28;20483;-61
2023/09/18 00:19:53;;;;;;;0.90;0.40;;;;;;;-143.84;71.68;45085.25;5089479;28;20447;-61
2023/09/18 00:22:20;;;;;;;0.90;0.40;;;;;;;-143.84;71.37;45096.66;5088984;28;20428;-60
2023/09/18 00:24:49;;;;;;;0.90;0.40;;;;;;;-143.84;71.26;45089.06;5089491;28;20446;-61
2023/09/18 00:27:17;;;;;;;0.90;0.40;;;;;;;-143.84;71.14;45090.97;5089430;28;20465;-61
2023/09/18 00:29:44;;;;;;;0.90;0.40;;;;;;;-143.84;71.05;45134.75;5089386;28;20447;-61
2023/09/18 00:32:11;;;;;;;0.90;0.30;;;;;;;-143.84;70.92;45117.63;5089322;28;20439;-61
2023/09/18 00:34:38;;;;;;;0.90;0.40;;;;;;;-143.84;71.17;45085.25;5089308;28;20448;-61
2023/09/18 00:37:05;;;;;;;0.90;0.30;;;;;;;-143.84;71.15;45089.06;5089228;28;20903;-61
2023/09/18 00:39:32;;;;;;;0.90;0.40;;;;;;;-143.84;71.05;45098.56;5089288;28;20512;-60
2023/09/18 00:42:01;;;;;;;0.90;0.40;;;;;;;-143.84;70.93;45090.97;5089015;28;20447;-61
2023/09/18 00:44:28;;;;;;;0.90;0.40;;;;;;;-143.84;70.68;45110.00;5088924;28;20455;-61
2023/09/18 00:46:55;;;;;;;0.90;0.40;;;;;;;-143.84;70.35;45119.53;5088977;28;20435;-61
2023/09/18 00:49:23;;;;;;;0.90;0.40;;;;;;;-143.84;70.36;45108.09;5089034;28;20440;-61
2023/09/18 00:51:51;;;;;;;0.90;0.40;;;;;;;-143.84;69.72;45117.63;5089038;28;20520;-61
2023/09/18 00:54:20;;;;;;;1.20;0.70;;;;;;;-143.84;69.68;45089.06;5088745;28;20439;-61
2023/09/18 00:56:53;;;;;;;0.90;0.40;;;;;;;-143.84;69.32;45104.28;5088590;28;20454;-61
2023/09/18 00:59:22;;;;;;;0.90;0.30;;;;;;;-143.84;69.26;45108.09;5088765;28;21022;-60
2023/09/18 01:01:51;;;;;;;0.90;0.40;;;;;;;-143.84;68.95;45102.38;5089051;28;20438;-61
2023/09/18 01:04:18;;;;;;;0.90;0.30;;;;;;;-143.84;69.36;45123.34;5089069;28;20440;-61
2023/09/18 01:06:47;;;;;;;0.90;0.40;;;;;;;-143.84;69.40;45121.44;5088885;28;20940;-61
2023/09/18 01:09:14;;;;;;;0.90;0.40;;;;;;;-143.84;69.23;45110.00;5088534;28;20948;-61
2023/09/18 01:11:50;;;;;;;0.90;0.40;;;;;;;-143.84;68.92;45117.63;5088637;28;20442;-61
2023/09/18 01:14:26;;;;;;;0.90;0.40;;;;;;;-143.84;69.35;45098.56;5088908;28;20497;-61
2023/09/18 01:16:58;;;;;;;0.90;0.37;;;;;;;-143.84;69.35;45066.22;5088997;28;20490;-61
2023/09/18 01:19:42;;;;;;;0.90;0.50;;;;;;;-143.84;69.45;45102.38;5088478;28;20482;-61
2023/09/18 01:22:11;;;;;;;0.90;0.40;;;;;;;-143.84;69.66;45104.28;5088795;28;20447;-61
2023/09/18 01:24:41;;;;;;;0.90;0.40;;;;;;;-143.84;69.75;45098.56;5088491;28;20474;-61
2023/09/18 01:27:10;;;;;;;0.90;0.40;;;;;;;-143.84;69.89;45106.19;5088457;28;20444;-61
2023/09/18 01:29:37;;;;;;;0.90;0.40;;;;;;;-143.84;69.89;45090.97;5088541;28;20462;-61
2023/09/18 01:32:05;;;;;;;0.90;0.40;;;;;;;-143.84;69.92;45119.53;5088724;28;20465;-61
2023/09/18 01:34:35;;;;;;;0.90;0.40;;;;;;;-143.84;69.77;45085.25;5089896;28;20489;-61
2023/09/18 01:37:05;;;;;;;0.90;0.30;;;;;;;-143.84;69.75;45104.28;5092620;28;20438;-61
2023/09/18 01:39:34;;;;;;;13.93;3.00;;;;;;;-143.84;69.87;45110.00;5092186;28;20424;-61
2023/09/18 01:42:05;;;;;;;0.90;0.40;;;;;;;-143.84;69.77;45132.84;5092360;28;20443;-61
2023/09/18 01:44:32;;;;;;;0.90;0.40;;;;;;;-143.84;70.17;45104.28;5092488;28;20444;-61
2023/09/18 01:47:00;;;;;;;0.80;0.30;;;;;;;-143.84;70.26;45108.09;5092708;28;20436;-61
2023/09/18 01:49:29;;;;;;;0.90;0.40;;;;;;;-143.84;70.30;45104.28;5092502;28;20440;-61
2023/09/18 01:51:56;;;;;;;0.90;0.40;;;;;;;-143.84;70.03;45111.91;5092171;28;20467;-61
2023/09/18 01:54:24;;;;;;;0.90;0.40;;;;;;;-143.84;69.99;45096.66;5091437;28;20497;-61
2023/09/18 01:56:51;;;;;;;2.23;0.70;;;;;;;-143.84;70.06;45098.56;5090990;28;20517;-61
2023/09/18 01:59:20;;;;;;;0.90;0.40;;;;;;;-143.84;69.79;45094.78;5091399;28;20513;-60
2023/09/18 02:01:47;;;;;;;0.90;0.50;;;;;;;-143.84;69.78;45098.56;5091491;28;20457;-61
2023/09/18 02:04:15;;;;;;;0.90;0.40;;;;;;;-143.84;69.71;45123.34;5091647;28;20922;-61
2023/09/18 02:06:42;;;;;;;0.90;0.40;;;;;;;-143.84;69.82;45123.34;5091383;28;20825;-61
2023/09/18 02:09:09;;;;;;;0.90;0.40;;;;;;;-143.84;69.67;45108.09;5091213;28;20440;-61
2023/09/18 02:11:37;;;;;;;0.90;0.40;;;;;;;-143.84;69.89;45110.00;5091380;28;20519;-61
2023/09/18 02:14:05;;;;;;;0.90;0.40;;;;;;;-143.84;69.76;45096.66;5091974;28;20501;-61
2023/09/18 02:16:34;;;;;;;0.87;0.30;;;;;;;-143.84;69.74;45100.47;5091952;28;20778;-61
2023/09/18 02:19:01;;;;;;;0.90;0.37;;;;;;;-143.84;69.83;45113.81;5091403;28;20499;-61
2023/09/18 02:21:28;;;;;;;0.90;0.40;;;;;;;-143.84;69.94;45119.53;5091741;28;20431;-61
2023/09/18 02:23:56;;;;;;;0.90;0.40;;;;;;;-143.84;69.87;45117.63;5091597;28;21092;-61
2023/09/18 02:26:24;;;;;;;0.90;0.40;;;;;;;-143.84;69.97;45108.09;5090694;28;20439;-61
2023/09/18 02:28:53;;;;;;;0.90;0.40;;;;;;;-143.84;70.08;45108.09;5091119;28;20847;-60
2023/09/18 02:31:20;;;;;;;0.90;0.40;;;;;;;-143.84;69.86;45104.28;5091417;28;20440;-61
2023/09/18 02:33:49;;;;;;;0.90;0.40;;;;;;;-143.84;69.92;45094.78;5090991;28;20831;-61
2023/09/18 02:36:16;;;;;;;0.90;0.40;;;;;;;-143.84;69.69;45094.78;5090835;28;20972;-61
2023/09/18 02:38:44;;;;;;;0.80;0.40;;;;;;;-143.84;69.62;45117.63;5091015;28;20568;-61
2023/09/18 02:41:11;;;;;;;0.90;0.40;;;;;;;-143.84;69.63;45115.72;5091188;28;20432;-61
2023/09/18 02:43:38;;;;;;;0.90;0.40;;;;;;;-143.84;69.58;45104.28;5090922;28;20448;-60
2023/09/18 02:46:06;;;;;;;0.90;0.40;;;;;;;-143.84;69.38;45098.56;5090829;28;20440;-61
2023/09/18 02:48:33;;;;;;;0.90;0.40;;;;;;;-143.84;69.00;45113.81;5091000;28;20443;-61
2023/09/18 02:51:02;;;;;;;0.90;0.40;;;;;;;-143.84;68.87;45077.63;5091012;28;20496;-61
2023/09/18 02:53:30;;;;;;;0.90;0.40;;;;;;;-143.84;69.00;45110.00;5091322;28;20444;-61
2023/09/18 02:55:59;;;;;;;0.90;0.40;;;;;;;-143.84;69.19;45090.97;5091601;28;20440;-61
2023/09/18 02:58:29;;;;;;;0.90;0.40;;;;;;;-143.84;69.69;45113.81;5091259;28;20487;-60
2023/09/18 03:00:57;;;;;;;0.90;0.40;;;;;;;-143.84;70.16;45100.47;5090634;28;20463;-61
2023/09/18 03:03:24;;;;;;;0.90;0.40;;;;;;;-143.84;70.49;45108.09;5090958;28;20491;-61
2023/09/18 03:05:51;;;;;;;0.90;0.40;;;;;;;-143.84;70.66;45085.25;5090711;28;20439;-61
2023/09/18 03:08:20;;;;;;;0.90;0.40;;;;;;;-143.84;71.11;45108.09;5090780;28;20494;-61
2023/09/18 03:10:47;;;;;;;0.90;0.40;;;;;;;-143.84;71.28;45111.91;5090834;28;20448;-61
2023/09/18 03:13:16;;;;;;;0.90;0.40;;;;;;;-143.84;71.33;45102.38;5090866;28;20493;-61
2023/09/18 03:15:48;;;;;;;0.90;0.40;;;;;;;-143.84;71.26;45115.72;5090753;28;20464;-61
2023/09/18 03:18:15;;;;;;;0.90;0.40;;;;;;;-143.84;71.54;45125.22;5090365;28;20491;-61
2023/09/18 03:20:42;;;;;;;0.90;0.40;;;;;;;-143.84;71.66;45104.28;5085686;28;20529;-61
2023/09/18 03:23:09;;;;;;;0.90;0.40;;;;;;;-143.84;72.10;45125.22;5070486;28;20854;-61
2023/09/18 03:25:38;;;;;;;0.90;0.30;;;;;;;-143.84;72.93;45123.34;5070098;28;21280;-61
2023/09/18 03:28:06;;;;;;;0.90;0.40;;;;;;;-143.84;72.85;45140.47;5070115;28;20843;-61
2023/09/18 03:30:33;;;;;;;0.90;0.40;;;;;;;-143.84;73.47;45102.38;5070245;28;20516;-60
2023/09/18 03:33:00;;;;;;;0.90;0.40;;;;;;;-143.84;73.45;45115.72;5069924;28;20449;-61
2023/09/18 03:35:30;;;;;;;0.90;0.40;;;;;;;-143.84;73.39;45096.66;5070211;28;20777;-61
2023/09/18 03:37:57;;;;;;;0.90;0.40;;;;;;;-143.84;73.67;45115.72;5070096;28;20484;-61
2023/09/18 03:40:24;;;;;;;0.90;0.40;;;;;;;-143.84;73.99;45094.78;5070295;28;20436;-61
2023/09/18 03:42:53;;;;;;;0.90;0.40;;;;;;;-143.84;74.09;45136.66;5069770;28;20789;-61
2023/09/18 03:45:20;;;;;;;1.63;0.70;;;;;;;-143.84;74.47;45140.47;5083567;28;20949;-61
2023/09/18 03:47:49;;;;;;;0.90;0.40;;;;;;;-143.84;74.46;45111.91;5086963;28;20448;-61
2023/09/18 03:50:17;;;;;;;0.90;0.40;;;;;;;-143.84;74.21;45113.81;5089408;28;20894;-61
2023/09/18 03:52:44;;;;;;;0.90;0.37;;;;;;;-143.84;74.50;45121.44;5089740;28;20424;-61
2023/09/18 03:55:11;;;;;;;0.90;0.40;;;;;;;-143.84;74.53;45121.44;5090195;28;20505;-61
2023/09/18 03:57:39;;;;;;;0.90;0.40;;;;;;;-143.84;74.93;45130.94;5088582;28;20439;-60
2023/09/18 04:00:09;;;;;;;0.90;0.40;;;;;;;-143.84;75.09;45106.19;5089301;28;20443;-61
2023/09/18 04:02:36;;;;;;;0.90;0.40;;;;;;;-143.84;75.04;45108.09;5088650;28;20475;-61
2023/09/18 04:05:04;;;;;;;0.90;0.40;;;;;;;-143.84;75.13;45117.63;5086846;28;20482;-61
2023/09/18 04:07:32;;;;;;;0.90;0.40;;;;;;;-143.84;75.39;45136.66;5089654;28;20913;-61
2023/09/18 04:09:59;;;;;;;0.90;0.40;;;;;;;-143.84;75.53;45092.88;5089594;28;20444;-61
2023/09/18 04:12:26;;;;;;;0.90;0.40;;;;;;;-143.84;75.67;45108.09;5089481;28;20493;-61
2023/09/18 04:14:54;;;;;;;0.90;0.40;;;;;;;-143.84;75.61;45098.56;5089404;28;20850;-61
2023/09/18 04:17:22;;;;;;;0.90;0.40;;;;;;;-143.84;75.52;45127.13;5089471;28;20448;-61
2023/09/18 04:19:49;;;;;;;0.90;0.40;;;;;;;-143.84;75.21;45129.03;5089498;28;20544;-61
2023/09/18 04:22:16;;;;;;;0.80;0.40;;;;;;;-143.84;75.33;45092.88;5089429;28;20440;-61
2023/09/18 04:24:43;;;;;;;0.90;0.50;;;;;;;-143.84;75.15;45098.56;5089489;28;20898;-61
2023/09/18 04:27:10;;;;;;;0.90;0.40;;;;;;;-143.84;75.32;45113.81;5089341;28;20439;-61
2023/09/18 04:29:37;;;;;;;0.90;0.40;;;;;;;-143.84;75.11;45106.19;5089158;28;20440;-61
2023/09/18 04:32:05;;;;;;;0.90;0.40;;;;;;;-143.84;75.31;45113.81;5089115;28;20509;-61
2023/09/18 04:34:34;;;;;;;0.90;0.40;;;;;;;-143.84;75.57;45117.63;5089152;28;20424;-61
2023/09/18 04:37:03;;;;;;;0.90;0.40;;;;;;;-143.84;75.89;45129.03;5089340;28;20520;-61
2023/09/18 04:39:33;;;;;;;0.90;0.40;;;;;;;-143.84;75.89;45121.44;5088910;28;20487;-61
2023/09/18 04:42:04;;;;;;;0.90;0.40;;;;;;;-143.84;76.66;45117.63;5089206;28;20534;-61
2023/09/18 04:44:32;;;;;;;0.90;0.40;;;;;;;-143.84;77.25;45134.75;5088966;28;20523;-61
2023/09/18 04:46:59;;;;;;;0.83;0.30;;;;;;;-143.84;77.94;45106.19;5088961;28;20435;-61
2023/09/18 04:49:27;;;;;;;1.10;0.73;;;;;;;-143.84;77.99;45119.53;5088934;28;20436;-61
2023/09/18 04:51:56;;;;;;;0.90;0.40;;;;;;;-143.84;76.97;45132.84;5089076;28;20467;-61
2023/09/18 04:54:23;;;;;;;0.83;0.40;;;;;;;-143.84;75.41;45092.88;5089047;28;20473;-61
2023/09/18 04:56:50;;;;;;;0.90;0.40;;;;;;;-143.84;73.78;45089.06;5088804;28;20451;-61
2023/09/18 04:59:17;;;;;;;0.90;0.40;;;;;;;-143.84;71.34;45083.34;5088822;28;20475;-61
2023/09/18 05:01:45;;;;;;;0.90;0.30;;;;;;;-143.84;70.06;45071.91;5088749;28;20443;-61
2023/09/18 05:04:12;;;;;;;0.90;0.40;;;;;;;-143.84;67.81;45079.53;5088555;28;20956;-61
2023/09/18 05:06:41;;;;;;;0.90;0.30;;;;;;;-143.84;66.36;45098.56;5087793;28;20448;-61
2023/09/18 05:09:10;;;;;;;0.90;0.30;;;;;;;-143.84;65.41;45089.06;5088082;28;20460;-61
2023/09/18 05:11:37;;;;;;;0.90;0.30;;;;;;;-143.84;63.83;45092.88;5088622;28;20941;-61
2023/09/18 05:14:06;;;;;;;0.90;0.30;;;;;;;-143.84;62.16;45079.53;5087917;28;20444;-61
2023/09/18 05:16:33;;;;;;;0.90;0.40;;;;;;;-143.84;61.87;45106.19;5087792;28;20444;-61
2023/09/18 05:19:00;;;;;;;0.90;0.30;;;;;;;-143.84;59.58;45056.69;5087726;28;20495;-61
2023/09/18 05:21:27;;;;;;;0.90;0.30;;;;;;;-143.84;59.03;45050.97;5088467;28;20448;-61
2023/09/18 05:23:54;;;;;;;0.90;0.40;;;;;;;-143.84;56.85;45073.81;5089193;28;20513;-61
2023/09/18 05:26:24;;;;;;;0.90;0.40;;;;;;;-143.84;54.69;45073.81;5088631;28;20447;-61
2023/09/18 05:28:53;;;;;;;0.90;0.30;;;;;;;-143.84;53.88;45041.44;5088431;28;20456;-61
2023/09/18 05:31:20;;;;;;;0.90;0.30;;;;;;;-143.84;52.87;45056.69;5088868;28;20450;-61
2023/09/18 05:33:48;;;;;;;0.90;0.40;;;;;;;-143.84;51.27;45033.84;5088715;28;21356;-61
2023/09/18 05:36:15;;;;;;;0.90;0.37;;;;;;;-143.84;50.95;45049.06;5088804;28;21334;-61
2023/09/18 05:38:43;;;;;;;0.90;0.30;;;;;;;-143.84;50.19;45054.78;5088514;28;20518;-60
2023/09/18 05:41:10;;;;;;;0.90;0.30;;;;;;;-143.84;48.88;45018.59;5088555;28;20440;-60
2023/09/18 05:43:39;;;;;;;0.90;0.30;;;;;;;-143.84;48.46;45033.84;5088454;28;20539;-61
2023/09/18 05:46:06;;;;;;;0.90;0.30;;;;;;;-143.84;46.94;45030.03;5088184;28;20945;-61
2023/09/18 05:48:33;;;;;;;0.87;0.40;;;;;;;-143.84;46.38;45049.06;5088332;28;20471;-60
2023/09/18 05:51:00;;;;;;;0.90;0.30;;;;;;;-143.84;45.93;45037.66;5088148;28;20819;-61
2023/09/18 05:53:27;;;;;;;0.80;0.30;;;;;;;-143.84;46.06;45037.66;5088579;28;20830;-61
2023/09/18 05:55:56;;;;;;;0.90;0.50;;;;;;;-143.84;46.35;45047.16;5088463;28;20420;-61
2023/09/18 05:58:25;;;;;;;0.80;0.30;;;;;;;-143.84;45.42;45047.16;5088070;28;20451;-60
2023/09/18 06:00:54;;;;;;;0.80;0.30;;;;;;;-143.84;44.61;45030.03;5088518;28;20504;-60
2023/09/18 06:03:21;;;;;;;0.80;0.30;;;;;;;-143.84;44.50;45022.41;5088224;28;20870;-61
2023/09/18 06:05:48;;;;;;;0.80;0.30;;;;;;;-143.84;44.75;45033.84;5088091;28;20455;-60
2023/09/18 06:08:15;;;;;;;0.80;0.30;;;;;;;-143.84;45.07;45014.78;5088131;28;20431;-60
2023/09/18 06:10:43;;;;;;;0.80;0.40;;;;;;;-143.84;45.28;45035.75;5088103;28;20452;-60
2023/09/18 06:13:10;;;;;;;0.80;0.30;;;;;;;-143.84;45.29;45010.97;5087940;28;20447;-60
2023/09/18 06:15:37;;;;;;;0.80;0.30;;;;;;;-143.84;44.71;45037.66;5088192;28;20558;-60
2023/09/18 06:18:07;;;;;;;0.80;0.30;;;;;;;-143.84;44.20;45024.31;5087366;28;20544;-60
2023/09/18 06:20:34;;;;;;;0.80;0.30;;;;;;;-143.84;43.16;45016.69;5088537;28;20482;-61
2023/09/18 06:23:03;;;;;;;0.80;0.30;;;;;;;-143.84;43.26;45028.13;5090756;28;20493;-60
2023/09/18 06:25:31;;;;;;;0.80;0.30;;;;;;;-143.84;43.13;44984.31;5090803;28;20444;-61
2023/09/18 06:28:00;;;;;;;0.80;0.30;;;;;;;-143.84;42.99;45003.38;5090685;28;20519;-61
2023/09/18 06:30:27;;;;;;;0.80;0.30;;;;;;;-143.84;42.33;45020.50;5090948;28;20891;-61
2023/09/18 06:32:54;;;;;;;3.27;0.57;;;;;;;-143.84;42.22;44997.66;5091089;28;20515;-61
2023/09/18 06:35:23;;;;;;;0.80;0.30;;;;;;;-143.84;41.83;44995.75;5090643;28;20945;-61
2023/09/18 06:37:50;;;;;;;0.80;0.30;;;;;;;-143.84;41.18;44969.09;5090965;28;20511;-61
2023/09/18 06:40:17;;;;;;;0.80;0.30;;;;;;;-143.84;40.57;44991.94;5091157;28;20545;-60
2023/09/18 06:42:44;;;;;;;0.80;0.40;;;;;;;-143.84;40.41;44982.41;5091443;28;21305;-61
2023/09/18 06:45:12;;;;;;;0.80;0.30;;;;;;;-143.84;40.12;44980.53;5091575;28;21123;-61
2023/09/18 06:47:40;;;;;;;0.80;0.30;;;;;;;-143.84;39.60;44997.66;5091333;28;20794;-60
2023/09/18 06:50:09;;;;;;;0.80;0.30;;;;;;;-143.84;39.10;44967.19;5091079;28;20446;-61
2023/09/18 06:52:37;;;;;;;0.80;0.30;;;;;;;-143.84;38.95;44991.94;5090838;28;20444;-61
2023/09/18 06:55:05;;;;;;;0.90;0.70;;;;;;;-143.84;37.87;44999.56;5091145;28;20505;-60
2023/09/18 06:57:33;;;;;;;0.80;0.30;;;;;;;-143.84;38.18;44974.81;5091079;28;20442;-61
2023/09/18 07:00:01;;;;;;;0.80;0.40;;;;;;;-143.84;37.80;44988.13;5091131;28;20640;-61
2023/09/18 07:02:28;;;;;;;0.80;0.30;;;;;;;-143.84;37.28;44988.13;5090947;28;20436;-61
2023/09/18 07:04:55;;;;;;;0.80;0.30;;;;;;;-143.84;37.67;44978.63;5091318;28;21205;-61
2023/09/18 07:07:25;;;;;;;0.80;0.30;;;;;;;-143.84;37.79;44986.22;5091151;28;20493;-61
2023/09/18 07:09:53;;;;;;;0.80;0.30;;;;;;;-143.84;37.19;44978.63;5090869;28;20440;-61
2023/09/18 07:12:20;;;;;;;0.80;0.30;;;;;;;-143.84;36.85;44995.75;5091093;28;20496;-61
2023/09/18 07:14:48;;;;;;;0.80;0.30;;;;;;;-143.84;37.07;44959.56;5090735;28;20432;-61
2023/09/18 07:17:15;;;;;;;0.80;0.40;;;;;;;-143.84;36.97;44967.19;5090892;28;20460;-61
2023/09/18 07:19:42;;;;;;;0.80;0.30;;;;;;;-143.84;36.40;44971.00;5090545;28;20513;-61
2023/09/18 07:22:09;;;;;;;0.80;0.30;;;;;;;-143.84;36.11;44955.75;5090872;28;20451;-61
2023/09/18 07:24:40;;;;;;;0.80;0.30;;;;;;;-143.84;36.10;44995.75;5090878;28;20860;-61
2023/09/18 07:27:09;;;;;;;0.80;0.30;;;;;;;-143.84;36.35;44986.22;5090398;28;20516;-60
2023/09/18 07:29:36;;;;;;;0.80;0.30;;;;;;;-143.84;36.02;44993.84;5090723;28;21036;-60
2023/09/18 07:32:03;;;;;;;0.80;0.30;;;;;;;-143.84;36.31;44984.31;5089768;28;20805;-61
2023/09/18 07:34:30;;;;;;;0.80;0.30;;;;;;;-143.84;36.90;44971.00;5090545;28;20440;-61
2023/09/18 07:36:57;;;;;;;0.80;0.30;;;;;;;-143.84;35.44;44969.09;5090224;28;20504;-61
2023/09/18 07:39:25;;;;;;;0.80;0.30;;;;;;;-143.84;35.18;44946.25;5090366;28;20482;-60
2023/09/18 07:41:52;;;;;;;0.80;0.40;;;;;;;-143.84;35.79;44969.09;5089960;28;20440;-60
2023/09/18 07:44:22;;;;;;;0.80;0.30;;;;;;;-143.84;35.82;44980.53;5090227;28;20440;-60
2023/09/18 07:46:49;;;;;;;0.80;0.30;;;;;;;-143.84;36.29;44984.31;5090318;28;20436;-61
2023/09/18 07:49:16;;;;;;;0.80;0.30;;;;;;;-143.84;35.93;44980.53;5090360;28;20452;-61
2023/09/18 07:51:45;;;;;;;0.80;0.37;;;;;;;-143.84;37.09;44980.53;5089957;28;20444;-60
2023/09/18 07:54:16;;;;;;;0.80;0.30;;;;;;;-143.84;36.78;44995.75;5090183;28;20444;-61
2023/09/18 07:56:43;;;;;;;0.80;0.30;;;;;;;-143.84;37.44;44988.13;5090088;28;20847;-61
2023/09/18 07:59:10;;;;;;;0.80;0.30;;;;;;;-143.84;37.28;44969.09;5089807;28;20440;-60
2023/09/18 08:01:39;;;;;;;0.80;0.30;;;;;;;-143.84;37.16;44965.28;5088864;28;20522;-60
2023/09/18 08:04:06;;;;;;;0.80;0.30;;;;;;;-143.84;37.76;44972.91;5088812;28;20444;-61
2023/09/18 08:06:33;;;;;;;0.80;0.37;;;;;;;-143.84;37.97;44971.00;5088909;28;20439;-60
2023/09/18 08:09:01;;;;;;;0.80;0.30;;;;;;;-143.84;38.22;44969.09;5089238;28;20444;-61
2023/09/18 08:11:28;;;;;;;0.80;0.40;;;;;;;-143.84;38.04;44953.88;5089129;28;20629;-61
2023/09/18 08:13:56;;;;;;;0.80;0.40;;;;;;;-143.84;36.77;44980.53;5089079;28;20439;-60
2023/09/18 08:16:23;;;;;;;0.80;0.30;;;;;;;-143.84;36.44;44959.56;5089217;28;20448;-61
2023/09/18 08:18:52;;;;;;;0.80;0.30;;;;;;;-143.84;36.21;44969.09;5089255;28;20520;-60
2023/09/18 08:21:19;;;;;;;0.80;0.30;;;;;;;-143.84;35.27;44967.19;5089122;28;20484;-60
2023/09/18 08:23:47;;;;;;;0.80;0.30;;;;;;;-143.84;36.11;44957.66;5089213;28;20467;-60
2023/09/18 08:26:14;;;;;;;0.80;0.30;;;;;;;-143.84;36.67;44969.09;5089373;28;20454;-60
2023/09/18 08:28:43;;;;;;;0.80;0.30;;;;;;;-143.84;36.79;44980.53;5089672;28;20432;-61
2023/09/18 08:31:11;;;;;;;0.80;0.30;;;;;;;-143.84;36.73;44944.34;5089168;28;20444;-60
2023/09/18 08:33:38;;;;;;;0.80;0.30;;;;;;;-143.84;37.14;44976.72;5089201;28;20471;-60
2023/09/18 08:36:06;;;;;;;0.80;0.30;;;;;;;-143.84;37.41;44934.81;5089082;28;20448;-60
2023/09/18 08:38:34;;;;;;;0.80;0.30;;;;;;;-143.84;36.80;44963.38;5089134;28;20498;-60
2023/09/18 08:41:01;;;;;;;0.80;0.30;;;;;;;-143.84;36.98;44980.53;5088901;28;20487;-60
2023/09/18 08:43:29;;;;;;;0.80;0.33;;;;;;;-143.84;37.05;44950.06;5088850;28;20837;-60
2023/09/18 08:46:01;;;;;;;0.80;0.30;;;;;;;-143.84;37.25;44925.31;5089344;28;20498;-60
2023/09/18 08:48:34;;;;;;;0.80;0.30;;;;;;;-143.84;37.23;44976.72;5089068;28;20443;-60
2023/09/18 08:51:03;;;;;;;0.80;0.30;;;;;;;-143.84;37.47;44972.91;5088887;28;20493;-60
2023/09/18 08:53:32;;;;;;;0.80;0.30;;;;;;;-143.84;37.75;44951.97;5089094;28;20443;-60
2023/09/18 08:56:01;;;;;;;0.80;0.30;;;;;;;-143.84;37.81;45003.38;5088563;28;20440;-60
2023/09/18 08:58:33;;;;;;;0.80;0.30;;;;;;;-143.84;37.94;44953.88;5088794;28;20443;-60
2023/09/18 09:01:03;;;;;;;0.80;0.30;;;;;;;-143.84;37.47;44961.47;5089210;28;20483;-61
2023/09/18 09:03:30;;;;;;;0.80;0.30;;;;;;;-143.84;37.48;44940.53;5088854;28;20531;-61
2023/09/18 09:06:00;;;;;;;0.80;0.40;;;;;;;-143.84;36.93;44967.19;5088642;28;20458;-61
2023/09/18 09:08:28;;;;;;;0.80;0.30;;;;;;;-143.84;36.74;44942.44;5088520;28;20451;-61
2023/09/18 09:10:58;;;;;;;0.80;0.40;;;;;;;-143.84;36.41;44950.06;5088761;28;20925;-60
2023/09/18 09:13:26;;;;;;;0.80;0.30;;;;;;;-143.84;36.40;44961.47;5088631;28;20526;-60
2023/09/18 09:15:55;;;;;;;0.80;0.30;;;;;;;-143.84;36.51;44938.63;5088499;28;20444;-60
2023/09/18 09:18:23;;;;;;;0.80;0.30;;;;;;;-143.84;36.41;44944.34;5088391;28;20541;-60
2023/09/18 09:20:58;;;;;;;0.80;0.30;;;;;;;-143.84;36.43;44967.19;5088750;28;20480;-61
2023/09/18 09:23:27;;;;;;;0.80;0.30;;;;;;;-143.84;36.43;44923.41;5088485;28;20442;-60
2023/09/18 09:25:54;;;;;;;0.80;0.30;;;;;;;-143.84;36.99;44932.91;5088528;28;20443;-61
2023/09/18 09:28:32;;;;;;;0.80;0.30;;;;;;;-143.84;37.51;44948.16;5088430;28;20447;-61
2023/09/18 09:31:03;;;;;;;0.80;0.30;;;;;;;-143.84;36.61;44948.16;5087663;28;20804;-61
2023/09/18 09:33:30;;;;;;;0.80;0.30;;;;;;;-143.84;36.42;44946.25;5088213;28;20531;-60
2023/09/18 09:35:58;;;;;;;0.80;0.30;;;;;;;-143.84;36.76;44957.66;5088391;28;20432;-60
2023/09/18 09:38:32;;;;;;;0.80;0.30;;;;;;;-143.84;37.55;44959.56;5088416;28;20497;-61
2023/09/18 09:41:00;;;;;;;0.80;0.30;;;;;;;-143.84;36.63;44959.56;5088443;28;20578;-61
2023/09/18 09:43:28;;;;;;;0.80;0.30;;;;;;;-143.84;37.00;44959.56;5088495;28;20443;-61
2023/09/18 09:46:00;;;;;;;0.80;0.30;;;;;;;-143.84;36.76;44993.84;5088469;28;20462;-61
2023/09/18 09:48:27;;;;;;;0.80;0.30;;;;;;;-143.84;37.34;44974.81;5088194;28;20448;-61
2023/09/18 09:51:01;;;;;;;0.80;0.30;;;;;;;-143.84;37.37;44988.13;5088048;28;20436;-61
2023/09/18 09:53:46;;;;;;;0.80;0.30;;;;;;;-143.84;37.20;44969.09;5088388;28;20444;-61
2023/09/18 09:56:14;;;;;;;0.80;0.30;;;;;;;-143.84;38.33;44972.91;5090967;28;20452;-61
2023/09/18 09:58:44;;;;;;;0.80;0.30;;;;;;;-143.84;37.15;44950.06;5092154;28;20436;-61
2023/09/18 10:01:17;;;;;;;0.80;0.30;;;;;;;-143.84;35.62;44934.81;5092085;28;21338;-61
2023/09/18 10:03:46;;;;;;;0.80;0.30;;;;;;;-143.84;35.67;44984.31;5092191;28;20439;-61
2023/09/18 10:06:14;;;;;;;0.80;0.30;;;;;;;-143.84;36.54;44984.31;5092022;28;20444;-61
2023/09/18 10:08:42;;;;;;;0.80;0.30;;;;;;;-143.84;35.47;44946.25;5092133;28;20444;-61
2023/09/18 10:11:11;;;;;;;0.80;0.30;;;;;;;-143.84;35.53;44969.09;5092000;28;20443;-60
2023/09/18 10:13:46;;;;;;;0.80;0.30;;;;;;;-143.84;35.19;44991.94;5091898;28;20930;-60
2023/09/18 10:16:19;;;;;;;0.80;0.30;;;;;;;-143.84;35.25;44969.09;5091741;28;20443;-60
2023/09/18 10:18:56;;;;;;;0.80;0.30;;;;;;;-143.84;35.02;44984.31;5091901;28;20499;-61
2023/09/18 10:21:31;;;;;;;0.80;0.30;;;;;;;-143.84;35.48;44971.00;5091414;28;20580;-61
2023/09/18 10:24:06;;;;;;;0.80;0.30;;;;;;;-143.84;34.99;44993.84;5092169;28;20435;-61
2023/09/18 10:26:39;;;;;;;0.80;0.30;;;;;;;-143.84;35.50;44972.91;5091865;28;20443;-61
2023/09/18 10:29:11;;;;;;;0.80;0.30;;;;;;;-143.84;35.43;44911.97;5091666;28;20451;-61
2023/09/18 10:31:41;;;;;;;0.80;0.30;;;;;;;-143.84;36.07;44965.28;5091890;28;20450;-61
2023/09/18 10:34:09;;;;;;;0.80;0.30;;;;;;;-143.84;36.22;44974.81;5091446;28;20515;-61
2023/09/18 10:36:38;;;;;;;0.80;0.40;;;;;;;-143.84;35.78;44982.41;5091669;28;20470;-61
2023/09/18 10:39:08;;;;;;;0.80;0.30;;;;;;;-143.84;35.82;44972.91;5091602;28;20455;-61
2023/09/18 10:41:37;;;;;;;0.80;0.30;;;;;;;-143.84;36.24;44972.91;5091671;28;20851;-61
2023/09/18 10:44:05;;;;;;;0.80;0.40;;;;;;;-143.84;35.92;44976.72;5091263;28;20847;-61
2023/09/18 10:46:33;;;;;;;0.90;0.60;;;;;;;-143.84;36.10;44944.34;5090646;28;20892;-61
2023/09/18 10:49:03;;;;;;;0.80;0.30;;;;;;;-143.84;36.56;44988.13;5090430;28;20454;-61
2023/09/18 10:51:33;;;;;;;0.80;0.30;;;;;;;-143.84;36.27;44955.75;5090468;28;20448;-60
2023/09/18 10:54:00;;;;;;;0.80;0.30;;;;;;;-143.84;36.78;44942.44;5090897;28;20462;-61
2023/09/18 10:56:27;;;;;;;0.80;0.30;;;;;;;-143.84;37.28;44971.00;5090268;28;20444;-61
2023/09/18 10:59:00;;;;;;;0.80;0.30;;;;;;;-143.84;37.30;44959.56;5090438;28;21018;-61
2023/09/18 11:01:29;;;;;;;0.80;0.30;;;;;;;-143.84;37.48;44991.94;5090332;28;20517;-61
2023/09/18 11:04:01;;;;;;;0.80;0.30;;;;;;;-143.84;37.56;44967.19;5090965;28;20440;-61
2023/09/18 11:06:29;;;;;;;0.80;0.30;;;;;;;-143.84;38.45;44957.66;5090377;28;20474;-61
2023/09/18 11:09:03;;;;;;;0.80;0.30;;;;;;;-143.84;38.15;44972.91;5090029;28;20447;-60
2023/09/18 11:11:32;;;;;;;0.80;0.30;;;;;;;-143.84;38.04;44999.56;5089819;28;20448;-61
2023/09/18 11:14:01;;;;;;;0.80;0.30;;;;;;;-143.84;38.39;44993.84;5090263;28;21313;-61
2023/09/18 11:16:39;;;;;;;0.80;0.30;;;;;;;-143.84;38.62;44978.63;5090682;28;20519;-61
2023/09/18 11:19:10;;;;;;;0.80;0.30;;;;;;;-143.84;38.61;45007.19;5089479;28;21018;-61
2023/09/18 11:21:39;;;;;;;0.80;0.30;;;;;;;-143.84;38.08;44967.19;5089920;28;20480;-61